sensor_id;sensor_type;location;lat;lon;timestamp;temperature;humidity
13682;DHT22;6913;49.892;7.936;2023-09-19T00:00:34;17.30;99.90
13682;DHT22;6913;49.892;7.936;2023-09-19T00:03:01;17.40;99.90
13682;DHT22;6913;49.892;7.936;2023-09-19T00:05:34;17.40;99.90
13682;DHT22;6913;49.892;7.936;2023-09-19T00:08:02;17.50;99.90
13682;DHT22;6913;49.892;7.936;2023-09-19T00:10:30;17.40;99.90
13682;DHT22;6913;49.892;7.936;2023-09-19T00:12:58;17.30;99.90
13682;DHT22;6913;49.892;7.936;2023-09-19T00:15:25;18.30;99.90
13682;DHT22;6913;49.892;7.936;2023-09-19T00:17:54;17.30;99.90
13682;DHT22;6913;49.892;7.936;2023-09-19T00:20:21;17.30;99.90
13682;DHT22;6913;49.892;7.936;2023-09-19T00:22:51;17.10;99.90
13682;DHT22;6913;49.892;7.936;2023-09-19T00:25:19;16.90;99.90
13682;DHT22;6913;49.892;7.936;2023-09-19T00:27:46;16.90;99.90
13682;DHT22;6913;49.892;7.936;2023-09-19T00:30:13;16.80;99.90
13682;DHT22;6913;49.892;7.936;2023-09-19T00:32:42;16.70;99.90
13682;DHT22;6913;49.892;7.936;2023-09-19T00:35:10;16.60;99.90
13682;DHT22;6913;49.892;7.936;2023-09-19T00:37:37;16.70;99.90
13682;DHT22;6913;49.892;7.936;2023-09-19T00:40:08;16.70;99.90
13682;DHT22;6913;49.892;7.936;2023-09-19T00:42:38;16.60;99.90
13682;DHT22;6913;49.892;7.936;2023-09-19T00:45:06;16.60;99.90
13682;DHT22;6913;49.892;7.936;2023-09-19T00:47:35;16.70;99.90
13682;DHT22;6913;49.892;7.936;2023-09-19T00:50:04;16.90;99.90
13682;DHT22;6913;49.892;7.936;2023-09-19T00:52:33;16.60;99.90
13682;DHT22;6913;49.892;7.936;2023-09-19T00:55:02;16.50;99.90
13682;DHT22;6913;49.892;7.936;2023-09-19T00:57:30;16.40;99.90
13682;DHT22;6913;49.892;7.936;2023-09-19T01:00:00;16.40;99.90
13682;DHT22;6913;49.892;7.936;2023-09-19T01:02:31;16.30;99.90
13682;DHT22;6913;49.892;7.936;2023-09-19T01:04:58;16.30;99.90
13682;DHT22;6913;49.892;7.936;2023-09-19T01:07:25;16.20;99.90
13682;DHT22;6913;49.892;7.936;2023-09-19T01:09:51;16.50;99.90
13682;DHT22;6913;49.892;7.936;2023-09-19T01:12:29;16.10;99.90
13682;DHT22;6913;49.892;7.936;2023-09-19T01:15:06;15.90;99.90
13682;DHT22;6913;49.892;7.936;2023-09-19T01:17:42;15.90;99.90
13682;DHT22;6913;49.892;7.936;2023-09-19T01:20:33;16.00;99.90
13682;DHT22;6913;49.892;7.936;2023-09-19T01:23:11;16.00;99.90
13682;DHT22;6913;49.892;7.936;2023-09-19T01:26:07;16.00;99.90
13682;DHT22;6913;49.892;7.936;2023-09-19T01:28:53;16.00;99.90
13682;DHT22;6913;49.892;7.936;2023-09-19T01:31:25;16.00;99.90
13682;DHT22;6913;49.892;7.936;2023-09-19T01:33:59;16.00;99.90
13682;DHT22;6913;49.892;7.936;2023-09-19T01:36:28;16.00;99.90
13682;DHT22;6913;49.892;7.936;2023-09-19T01:38:56;16.00;99.90
13682;DHT22;6913;49.892;7.936;2023-09-19T01:41:35;16.00;99.90
13682;DHT22;6913;49.892;7.936;2023-09-19T01:44:06;15.90;99.90
13682;DHT22;6913;49.892;7.936;2023-09-19T01:46:40;15.90;99.90
13682;DHT22;6913;49.892;7.936;2023-09-19T01:49:18;15.90;99.90
13682;DHT22;6913;49.892;7.936;2023-09-19T01:51:53;16.00;99.90
13682;DHT22;6913;49.892;7.936;2023-09-19T01:54:27;16.00;99.90
13682;DHT22;6913;49.892;7.936;2023-09-19T01:57:01;15.90;99.90
13682;DHT22;6913;49.892;7.936;2023-09-19T01:59:35;15.90;99.90
13682;DHT22;6913;49.892;7.936;2023-09-19T02:02:07;16.80;99.90
13682;DHT22;6913;49.892;7.936;2023-09-19T02:04:35;15.90;99.90
13682;DHT22;6913;49.892;7.936;2023-09-19T02:07:02;15.80;99.90
13682;DHT22;6913;49.892;7.936;2023-09-19T02:09:31;15.80;99.90
13682;DHT22;6913;49.892;7.936;2023-09-19T02:11:58;15.80;99.90
13682;DHT22;6913;49.892;7.936;2023-09-19T02:14:25;15.00;99.90
13682;DHT22;6913;49.892;7.936;2023-09-19T02:16:53;15.90;99.90
13682;DHT22;6913;49.892;7.936;2023-09-19T02:19:21;15.90;99.90
13682;DHT22;6913;49.892;7.936;2023-09-19T02:21:48;15.90;99.90
13682;DHT22;6913;49.892;7.936;2023-09-19T02:24:15;16.00;99.90
13682;DHT22;6913;49.892;7.936;2023-09-19T02:26:42;16.20;99.90
13682;DHT22;6913;49.892;7.936;2023-09-19T02:29:09;15.90;99.90
13682;DHT22;6913;49.892;7.936;2023-09-19T02:31:38;15.80;99.90
13682;DHT22;6913;49.892;7.936;2023-09-19T02:34:08;15.90;99.90
13682;DHT22;6913;49.892;7.936;2023-09-19T02:36:37;15.80;99.90
13682;DHT22;6913;49.892;7.936;2023-09-19T02:39:05;15.70;99.90
13682;DHT22;6913;49.892;7.936;2023-09-19T02:41:33;15.70;99.90
13682;DHT22;6913;49.892;7.936;2023-09-19T02:44:00;15.60;99.90
13682;DHT22;6913;49.892;7.936;2023-09-19T02:46:27;15.50;99.90
13682;DHT22;6913;49.892;7.936;2023-09-19T02:48:54;15.50;99.90
13682;DHT22;6913;49.892;7.936;2023-09-19T02:51:21;15.50;99.90
13682;DHT22;6913;49.892;7.936;2023-09-19T02:53:50;15.40;99.90
13682;DHT22;6913;49.892;7.936;2023-09-19T02:56:17;15.50;99.90
13682;DHT22;6913;49.892;7.936;2023-09-19T02:58:44;15.50;99.90
13682;DHT22;6913;49.892;7.936;2023-09-19T03:01:11;15.50;99.90
13682;DHT22;6913;49.892;7.936;2023-09-19T03:03:38;15.40;99.90
13682;DHT22;6913;49.892;7.936;2023-09-19T03:06:06;15.40;99.90
13682;DHT22;6913;49.892;7.936;2023-09-19T03:08:34;15.50;99.90
13682;DHT22;6913;49.892;7.936;2023-09-19T03:11:04;15.50;99.90
13682;DHT22;6913;49.892;7.936;2023-09-19T03:13:33;15.50;99.90
13682;DHT22;6913;49.892;7.936;2023-09-19T03:16:01;15.40;99.90
13682;DHT22;6913;49.892;7.936;2023-09-19T03:18:31;15.40;99.90
13682;DHT22;6913;49.892;7.936;2023-09-19T03:20:58;15.40;99.90
13682;DHT22;6913;49.892;7.936;2023-09-19T03:23:26;15.40;99.90
13682;DHT22;6913;49.892;7.936;2023-09-19T03:25:53;15.40;99.90
13682;DHT22;6913;49.892;7.936;2023-09-19T03:28:23;15.30;99.90
13682;DHT22;6913;49.892;7.936;2023-09-19T03:30:58;15.20;99.90
13682;DHT22;6913;49.892;7.936;2023-09-19T03:33:26;15.30;99.90
13682;DHT22;6913;49.892;7.936;2023-09-19T03:35:53;15.30;99.90
13682;DHT22;6913;49.892;7.936;2023-09-19T03:38:20;15.40;99.90
13682;DHT22;6913;49.892;7.936;2023-09-19T03:40:48;15.30;99.90
13682;DHT22;6913;49.892;7.936;2023-09-19T03:43:15;15.30;99.90
13682;DHT22;6913;49.892;7.936;2023-09-19T03:45:43;15.20;99.90
13682;DHT22;6913;49.892;7.936;2023-09-19T03:48:10;15.20;99.90
13682;DHT22;6913;49.892;7.936;2023-09-19T03:50:37;15.20;99.90
13682;DHT22;6913;49.892;7.936;2023-09-19T03:53:04;15.30;99.90
13682;DHT22;6913;49.892;7.936;2023-09-19T03:55:32;15.20;99.90
13682;DHT22;6913;49.892;7.936;2023-09-19T03:58:00;15.20;99.90
13682;DHT22;6913;49.892;7.936;2023-09-19T04:00:27;15.40;99.90
13682;DHT22;6913;49.892;7.936;2023-09-19T04:02:56;15.70;99.90
13682;DHT22;6913;49.892;7.936;2023-09-19T04:05:23;15.10;99.90
13682;DHT22;6913;49.892;7.936;2023-09-19T04:07:50;15.10;99.90
13682;DHT22;6913;49.892;7.936;2023-09-19T04:10:17;15.10;99.90
13682;DHT22;6913;49.892;7.936;2023-09-19T04:12:50;15.10;99.90
13682;DHT22;6913;49.892;7.936;2023-09-19T04:15:18;15.10;99.90
13682;DHT22;6913;49.892;7.936;2023-09-19T04:17:46;15.10;99.90
13682;DHT22;6913;49.892;7.936;2023-09-19T04:20:14;15.10;99.90
13682;DHT22;6913;49.892;7.936;2023-09-19T04:22:41;15.10;99.90
13682;DHT22;6913;49.892;7.936;2023-09-19T04:25:08;15.10;99.90
13682;DHT22;6913;49.892;7.936;2023-09-19T04:27:36;15.10;99.90
13682;DHT22;6913;49.892;7.936;2023-09-19T04:30:04;15.10;99.90
13682;DHT22;6913;49.892;7.936;2023-09-19T04:32:36;15.00;99.90
13682;DHT22;6913;49.892;7.936;2023-09-19T04:35:05;15.00;99.90
13682;DHT22;6913;49.892;7.936;2023-09-19T04:37:36;15.00;99.90
13682;DHT22;6913;49.892;7.936;2023-09-19T04:40:06;14.90;99.90
13682;DHT22;6913;49.892;7.936;2023-09-19T04:42:38;15.00;99.90
13682;DHT22;6913;49.892;7.936;2023-09-19T04:45:05;15.00;99.90
13682;DHT22;6913;49.892;7.936;2023-09-19T04:47:32;14.90;99.90
13682;DHT22;6913;49.892;7.936;2023-09-19T04:49:59;15.30;99.90
13682;DHT22;6913;49.892;7.936;2023-09-19T04:52:26;14.90;99.90
13682;DHT22;6913;49.892;7.936;2023-09-19T04:54:54;15.20;99.90
13682;DHT22;6913;49.892;7.936;2023-09-19T04:57:21;14.80;99.90
13682;DHT22;6913;49.892;7.936;2023-09-19T04:59:48;14.80;99.90
13682;DHT22;6913;49.892;7.936;2023-09-19T05:02:15;14.70;99.90
13682;DHT22;6913;49.892;7.936;2023-09-19T05:04:42;14.60;99.90
13682;DHT22;6913;49.892;7.936;2023-09-19T05:07:09;14.60;99.90
13682;DHT22;6913;49.892;7.936;2023-09-19T05:09:37;14.40;99.90
13682;DHT22;6913;49.892;7.936;2023-09-19T05:12:05;14.40;99.90
13682;DHT22;6913;49.892;7.936;2023-09-19T05:14:32;14.40;99.90
13682;DHT22;6913;49.892;7.936;2023-09-19T05:16:59;14.40;99.90
13682;DHT22;6913;49.892;7.936;2023-09-19T05:19:26;14.30;99.90
13682;DHT22;6913;49.892;7.936;2023-09-19T05:21:52;14.40;99.90
13682;DHT22;6913;49.892;7.936;2023-09-19T05:24:20;14.40;99.90
13682;DHT22;6913;49.892;7.936;2023-09-19T05:26:48;15.60;99.90
13682;DHT22;6913;49.892;7.936;2023-09-19T05:29:16;14.30;99.90
13682;DHT22;6913;49.892;7.936;2023-09-19T05:31:43;14.30;99.90
13682;DHT22;6913;49.892;7.936;2023-09-19T05:34:10;14.30;99.90
13682;DHT22;6913;49.892;7.936;2023-09-19T05:36:37;14.40;99.90
13682;DHT22;6913;49.892;7.936;2023-09-19T05:39:05;14.40;99.90
13682;DHT22;6913;49.892;7.936;2023-09-19T05:41:34;14.40;99.90
13682;DHT22;6913;49.892;7.936;2023-09-19T05:44:02;14.40;99.90
13682;DHT22;6913;49.892;7.936;2023-09-19T05:46:30;14.40;99.90
13682;DHT22;6913;49.892;7.936;2023-09-19T05:48:57;14.40;99.90
13682;DHT22;6913;49.892;7.936;2023-09-19T05:51:24;14.50;99.90
13682;DHT22;6913;49.892;7.936;2023-09-19T05:53:54;14.50;99.90
13682;DHT22;6913;49.892;7.936;2023-09-19T05:56:21;14.60;99.90
13682;DHT22;6913;49.892;7.936;2023-09-19T05:58:48;14.60;99.90
13682;DHT22;6913;49.892;7.936;2023-09-19T06:01:17;14.60;99.90
13682;DHT22;6913;49.892;7.936;2023-09-19T06:03:45;14.70;99.90
13682;DHT22;6913;49.892;7.936;2023-09-19T06:06:12;14.70;99.90
13682;DHT22;6913;49.892;7.936;2023-09-19T06:08:39;14.80;99.90
13682;DHT22;6913;49.892;7.936;2023-09-19T06:11:05;14.70;99.90
13682;DHT22;6913;49.892;7.936;2023-09-19T06:13:34;14.80;99.90
13682;DHT22;6913;49.892;7.936;2023-09-19T06:16:01;14.90;99.90
13682;DHT22;6913;49.892;7.936;2023-09-19T06:18:30;15.00;99.90
13682;DHT22;6913;49.892;7.936;2023-09-19T06:21:00;15.00;99.90
13682;DHT22;6913;49.892;7.936;2023-09-19T06:23:33;15.10;99.90
13682;DHT22;6913;49.892;7.936;2023-09-19T06:26:00;15.20;99.90
13682;DHT22;6913;49.892;7.936;2023-09-19T06:28:27;15.60;99.90
13682;DHT22;6913;49.892;7.936;2023-09-19T06:30:54;15.40;99.90
13682;DHT22;6913;49.892;7.936;2023-09-19T06:33:21;15.40;99.90
13682;DHT22;6913;49.892;7.936;2023-09-19T06:35:48;15.60;99.90
13682;DHT22;6913;49.892;7.936;2023-09-19T06:38:16;15.70;99.90
13682;DHT22;6913;49.892;7.936;2023-09-19T06:40:44;16.40;99.90
13682;DHT22;6913;49.892;7.936;2023-09-19T06:43:11;15.90;99.90
13682;DHT22;6913;49.892;7.936;2023-09-19T06:45:38;17.40;99.90
13682;DHT22;6913;49.892;7.936;2023-09-19T06:48:05;15.90;99.90
13682;DHT22;6913;49.892;7.936;2023-09-19T06:50:32;16.00;99.90
13682;DHT22;6913;49.892;7.936;2023-09-19T06:53:01;16.00;99.90
13682;DHT22;6913;49.892;7.936;2023-09-19T06:55:29;16.10;99.90
13682;DHT22;6913;49.892;7.936;2023-09-19T06:57:57;16.50;99.90
13682;DHT22;6913;49.892;7.936;2023-09-19T07:00:24;16.60;99.90
13682;DHT22;6913;49.892;7.936;2023-09-19T07:02:57;16.20;99.90
13682;DHT22;6913;49.892;7.936;2023-09-19T07:05:26;16.40;99.90
13682;DHT22;6913;49.892;7.936;2023-09-19T07:07:54;16.60;99.90
13682;DHT22;6913;49.892;7.936;2023-09-19T07:10:22;17.20;99.90
13682;DHT22;6913;49.892;7.936;2023-09-19T07:12:57;17.10;99.90
13682;DHT22;6913;49.892;7.936;2023-09-19T07:15:24;17.20;99.90
13682;DHT22;6913;49.892;7.936;2023-09-19T07:17:51;17.30;99.90
13682;DHT22;6913;49.892;7.936;2023-09-19T07:20:19;17.10;99.90
13682;DHT22;6913;49.892;7.936;2023-09-19T07:22:46;17.60;99.90
13682;DHT22;6913;49.892;7.936;2023-09-19T07:25:13;17.40;99.90
13682;DHT22;6913;49.892;7.936;2023-09-19T07:27:40;17.50;99.90
13682;DHT22;6913;49.892;7.936;2023-09-19T07:30:10;17.50;99.90
13682;DHT22;6913;49.892;7.936;2023-09-19T07:32:37;17.50;99.90
13682;DHT22;6913;49.892;7.936;2023-09-19T07:35:04;18.20;99.90
13682;DHT22;6913;49.892;7.936;2023-09-19T07:37:32;17.70;99.90
13682;DHT22;6913;49.892;7.936;2023-09-19T07:39:59;17.80;99.90
13682;DHT22;6913;49.892;7.936;2023-09-19T07:42:26;17.80;99.90
13682;DHT22;6913;49.892;7.936;2023-09-19T07:44:53;19.60;99.90
13682;DHT22;6913;49.892;7.936;2023-09-19T07:47:21;18.40;99.90
13682;DHT22;6913;49.892;7.936;2023-09-19T07:49:48;20.10;99.90
13682;DHT22;6913;49.892;7.936;2023-09-19T07:52:15;19.20;99.90
13682;DHT22;6913;49.892;7.936;2023-09-19T07:54:42;18.90;99.90
13682;DHT22;6913;49.892;7.936;2023-09-19T07:57:09;19.20;99.90
13682;DHT22;6913;49.892;7.936;2023-09-19T07:59:37;19.30;99.90
13682;DHT22;6913;49.892;7.936;2023-09-19T08:02:04;19.50;99.90
13682;DHT22;6913;49.892;7.936;2023-09-19T08:04:35;19.80;99.90
13682;DHT22;6913;49.892;7.936;2023-09-19T08:07:02;20.20;99.90
13682;DHT22;6913;49.892;7.936;2023-09-19T08:09:31;20.20;99.90
13682;DHT22;6913;49.892;7.936;2023-09-19T08:12:00;20.30;99.90
13682;DHT22;6913;49.892;7.936;2023-09-19T08:14:29;20.40;96.70
13682;DHT22;6913;49.892;7.936;2023-09-19T08:16:57;20.10;99.90
13682;DHT22;6913;49.892;7.936;2023-09-19T08:19:24;20.00;99.90
13682;DHT22;6913;49.892;7.936;2023-09-19T08:21:56;20.20;94.80
13682;DHT22;6913;49.892;7.936;2023-09-19T08:24:24;20.00;98.20
13682;DHT22;6913;49.892;7.936;2023-09-19T08:26:52;20.20;93.00
13682;DHT22;6913;49.892;7.936;2023-09-19T08:29:20;20.20;94.20
13682;DHT22;6913;49.892;7.936;2023-09-19T08:31:46;20.00;64.20
13682;DHT22;6913;49.892;7.936;2023-09-19T08:34:15;20.10;78.30
13682;DHT22;6913;49.892;7.936;2023-09-19T08:36:42;20.10;68.20
13682;DHT22;6913;49.892;7.936;2023-09-19T08:39:11;20.50;75.20
13682;DHT22;6913;49.892;7.936;2023-09-19T08:41:39;20.50;75.20
13682;DHT22;6913;49.892;7.936;2023-09-19T08:44:06;20.70;99.90
13682;DHT22;6913;49.892;7.936;2023-09-19T08:46:34;20.50;45.30
13682;DHT22;6913;49.892;7.936;2023-09-19T08:49:04;20.50;50.60
13682;DHT22;6913;49.892;7.936;2023-09-19T08:51:39;20.50;56.10
13682;DHT22;6913;49.892;7.936;2023-09-19T08:54:16;20.50;25.70
13682;DHT22;6913;49.892;7.936;2023-09-19T08:56:48;20.90;99.90
13682;DHT22;6913;49.892;7.936;2023-09-19T08:59:16;20.90;99.90
13682;DHT22;6913;49.892;7.936;2023-09-19T09:01:49;20.90;99.90
13682;DHT22;6913;49.892;7.936;2023-09-19T09:04:19;20.60;99.90
13682;DHT22;6913;49.892;7.936;2023-09-19T09:06:46;20.50;34.60
13682;DHT22;6913;49.892;7.936;2023-09-19T09:09:20;21.50;99.90
13682;DHT22;6913;49.892;7.936;2023-09-19T09:11:48;20.90;5.80
13682;DHT22;6913;49.892;7.936;2023-09-19T09:14:19;20.80;8.70
13682;DHT22;6913;49.892;7.936;2023-09-19T09:16:46;21.10;99.90
13682;DHT22;6913;49.892;7.936;2023-09-19T09:19:14;21.30;99.90
13682;DHT22;6913;49.892;7.936;2023-09-19T09:21:49;21.40;99.90
13682;DHT22;6913;49.892;7.936;2023-09-19T09:24:30;21.60;99.90
13682;DHT22;6913;49.892;7.936;2023-09-19T09:26:59;21.10;3.80
13682;DHT22;6913;49.892;7.936;2023-09-19T09:29:44;21.60;17.00
13682;DHT22;6913;49.892;7.936;2023-09-19T09:32:20;21.70;2.60
13682;DHT22;6913;49.892;7.936;2023-09-19T09:34:49;21.70;99.90
13682;DHT22;6913;49.892;7.936;2023-09-19T09:37:16;22.10;99.90
13682;DHT22;6913;49.892;7.936;2023-09-19T09:39:51;21.80;99.90
13682;DHT22;6913;49.892;7.936;2023-09-19T09:42:34;21.90;99.90
13682;DHT22;6913;49.892;7.936;2023-09-19T09:45:15;22.00;99.90
13682;DHT22;6913;49.892;7.936;2023-09-19T09:47:46;22.20;1.00
13682;DHT22;6913;49.892;7.936;2023-09-19T09:50:27;22.10;99.90
13682;DHT22;6913;49.892;7.936;2023-09-19T09:53:25;22.30;99.90
13682;DHT22;6913;49.892;7.936;2023-09-19T09:55:59;22.40;99.90
13682;DHT22;6913;49.892;7.936;2023-09-19T09:58:26;22.50;99.90
13682;DHT22;6913;49.892;7.936;2023-09-19T10:00:55;22.90;99.90
13682;DHT22;6913;49.892;7.936;2023-09-19T10:03:31;23.00;99.90
13682;DHT22;6913;49.892;7.936;2023-09-19T10:06:00;22.90;99.90
13682;DHT22;6913;49.892;7.936;2023-09-19T10:08:36;23.10;99.90
13682;DHT22;6913;49.892;7.936;2023-09-19T10:11:16;22.80;99.90
13682;DHT22;6913;49.892;7.936;2023-09-19T10:13:46;22.80;99.90
13682;DHT22;6913;49.892;7.936;2023-09-19T10:16:13;23.30;99.90
13682;DHT22;6913;49.892;7.936;2023-09-19T10:18:43;23.30;99.90
13682;DHT22;6913;49.892;7.936;2023-09-19T10:21:11;23.60;99.90
13682;DHT22;6913;49.892;7.936;2023-09-19T10:23:38;23.30;98.90
13682;DHT22;6913;49.892;7.936;2023-09-19T10:26:08;23.10;99.80
13682;DHT22;6913;49.892;7.936;2023-09-19T10:28:38;23.10;99.60
13682;DHT22;6913;49.892;7.936;2023-09-19T10:31:05;23.50;99.90
13682;DHT22;6913;49.892;7.936;2023-09-19T10:33:36;23.20;99.90
13682;DHT22;6913;49.892;7.936;2023-09-19T10:36:05;23.90;98.50
13682;DHT22;6913;49.892;7.936;2023-09-19T10:38:33;23.90;99.20
13682;DHT22;6913;49.892;7.936;2023-09-19T10:41:01;24.10;99.90
13682;DHT22;6913;49.892;7.936;2023-09-19T10:43:30;23.90;96.60
13682;DHT22;6913;49.892;7.936;2023-09-19T10:46:02;24.10;98.20
13682;DHT22;6913;49.892;7.936;2023-09-19T10:48:29;24.20;96.00
13682;DHT22;6913;49.892;7.936;2023-09-19T10:51:01;24.50;99.90
13682;DHT22;6913;49.892;7.936;2023-09-19T10:53:43;23.90;96.60
13682;DHT22;6913;49.892;7.936;2023-09-19T10:56:17;23.30;96.30
13682;DHT22;6913;49.892;7.936;2023-09-19T10:58:45;22.90;96.00
13682;DHT22;6913;49.892;7.936;2023-09-19T11:01:15;22.90;99.00
13682;DHT22;6913;49.892;7.936;2023-09-19T11:03:43;23.20;97.80
13682;DHT22;6913;49.892;7.936;2023-09-19T11:06:13;23.40;96.40
13682;DHT22;6913;49.892;7.936;2023-09-19T11:09:00;23.30;96.40
13682;DHT22;6913;49.892;7.936;2023-09-19T11:11:49;23.30;95.50
13682;DHT22;6913;49.892;7.936;2023-09-19T11:14:30;23.20;97.90
13682;DHT22;6913;49.892;7.936;2023-09-19T11:20:24;23.60;93.80
13682;DHT22;6913;49.892;7.936;2023-09-19T11:23:20;23.00;92.20
13682;DHT22;6913;49.892;7.936;2023-09-19T11:25:51;22.70;95.80
13682;DHT22;6913;49.892;7.936;2023-09-19T11:28:34;23.00;97.10
13682;DHT22;6913;49.892;7.936;2023-09-19T11:34:46;22.90;95.80
13682;DHT22;6913;49.892;7.936;2023-09-19T11:44:32;23.30;91.80
13682;DHT22;6913;49.892;7.936;2023-09-19T11:47:00;23.40;91.40
13682;DHT22;6913;49.892;7.936;2023-09-19T11:49:30;23.70;92.10
13682;DHT22;6913;49.892;7.936;2023-09-19T11:51:58;23.70;92.80
13682;DHT22;6913;49.892;7.936;2023-09-19T11:54:27;23.20;91.90
13682;DHT22;6913;49.892;7.936;2023-09-19T11:56:59;23.20;92.90
13682;DHT22;6913;49.892;7.936;2023-09-19T11:59:28;23.50;91.20
13682;DHT22;6913;49.892;7.936;2023-09-19T12:01:55;23.20;87.90
13682;DHT22;6913;49.892;7.936;2023-09-19T12:04:34;23.40;92.20
13682;DHT22;6913;49.892;7.936;2023-09-19T12:07:07;23.60;91.60
13682;DHT22;6913;49.892;7.936;2023-09-19T12:09:41;23.90;89.10
13682;DHT22;6913;49.892;7.936;2023-09-19T12:12:11;24.30;91.50
13682;DHT22;6913;49.892;7.936;2023-09-19T12:14:41;24.30;86.10
13682;DHT22;6913;49.892;7.936;2023-09-19T12:17:08;24.50;92.80
13682;DHT22;6913;49.892;7.936;2023-09-19T12:19:35;24.50;91.10
13682;DHT22;6913;49.892;7.936;2023-09-19T12:22:03;24.50;89.20
13682;DHT22;6913;49.892;7.936;2023-09-19T12:24:31;24.50;90.30
13682;DHT22;6913;49.892;7.936;2023-09-19T12:27:02;24.30;90.80
13682;DHT22;6913;49.892;7.936;2023-09-19T12:29:42;24.30;89.90
13682;DHT22;6913;49.892;7.936;2023-09-19T12:32:09;24.50;88.00
13682;DHT22;6913;49.892;7.936;2023-09-19T12:34:36;24.50;84.50
13682;DHT22;6913;49.892;7.936;2023-09-19T12:37:09;24.10;87.40
13682;DHT22;6913;49.892;7.936;2023-09-19T12:39:42;23.90;86.80
13682;DHT22;6913;49.892;7.936;2023-09-19T12:42:15;24.00;84.50
13682;DHT22;6913;49.892;7.936;2023-09-19T12:44:44;23.90;85.00
13682;DHT22;6913;49.892;7.936;2023-09-19T12:47:13;24.10;86.80
13682;DHT22;6913;49.892;7.936;2023-09-19T12:50:06;23.80;90.40
13682;DHT22;6913;49.892;7.936;2023-09-19T12:52:39;24.40;88.40
13682;DHT22;6913;49.892;7.936;2023-09-19T12:55:06;24.70;90.60
13682;DHT22;6913;49.892;7.936;2023-09-19T12:57:34;24.60;90.40
13682;DHT22;6913;49.892;7.936;2023-09-19T13:00:03;24.50;87.60
13682;DHT22;6913;49.892;7.936;2023-09-19T13:02:31;24.00;85.00
13682;DHT22;6913;49.892;7.936;2023-09-19T13:04:58;23.80;86.60
13682;DHT22;6913;49.892;7.936;2023-09-19T13:07:43;23.80;85.50
13682;DHT22;6913;49.892;7.936;2023-09-19T13:10:10;24.00;86.20
13682;DHT22;6913;49.892;7.936;2023-09-19T13:12:40;23.90;88.30
13682;DHT22;6913;49.892;7.936;2023-09-19T13:15:12;23.70;84.90
13682;DHT22;6913;49.892;7.936;2023-09-19T13:17:44;23.80;89.00
13682;DHT22;6913;49.892;7.936;2023-09-19T13:20:21;23.90;87.10
13682;DHT22;6913;49.892;7.936;2023-09-19T13:22:53;24.10;84.00
13682;DHT22;6913;49.892;7.936;2023-09-19T13:25:25;23.70;90.40
13682;DHT22;6913;49.892;7.936;2023-09-19T13:27:57;23.80;86.90
13682;DHT22;6913;49.892;7.936;2023-09-19T13:30:27;23.80;85.60
13682;DHT22;6913;49.892;7.936;2023-09-19T13:33:05;23.80;90.10
13682;DHT22;6913;49.892;7.936;2023-09-19T13:35:32;23.90;90.00
13682;DHT22;6913;49.892;7.936;2023-09-19T13:37:59;23.70;87.00
13682;DHT22;6913;49.892;7.936;2023-09-19T13:40:26;23.70;85.10
13682;DHT22;6913;49.892;7.936;2023-09-19T13:42:56;23.40;83.50
13682;DHT22;6913;49.892;7.936;2023-09-19T13:45:22;23.40;86.80
13682;DHT22;6913;49.892;7.936;2023-09-19T13:47:53;23.30;87.20
13682;DHT22;6913;49.892;7.936;2023-09-19T13:50:21;22.80;89.50
13682;DHT22;6913;49.892;7.936;2023-09-19T13:52:49;22.90;90.10
13682;DHT22;6913;49.892;7.936;2023-09-19T13:55:17;23.40;91.30
13682;DHT22;6913;49.892;7.936;2023-09-19T13:57:45;23.10;89.40
13682;DHT22;6913;49.892;7.936;2023-09-19T14:00:13;22.70;90.10
13682;DHT22;6913;49.892;7.936;2023-09-19T14:02:41;22.70;92.00
13682;DHT22;6913;49.892;7.936;2023-09-19T14:05:11;22.70;91.60
13682;DHT22;6913;49.892;7.936;2023-09-19T14:07:40;22.70;93.80
13682;DHT22;6913;49.892;7.936;2023-09-19T14:10:08;22.80;93.40
13682;DHT22;6913;49.892;7.936;2023-09-19T14:12:36;22.70;92.50
13682;DHT22;6913;49.892;7.936;2023-09-19T14:15:03;22.80;94.50
13682;DHT22;6913;49.892;7.936;2023-09-19T14:17:30;22.70;93.80
13682;DHT22;6913;49.892;7.936;2023-09-19T14:19:57;22.80;94.50
13682;DHT22;6913;49.892;7.936;2023-09-19T14:22:25;22.70;92.60
13682;DHT22;6913;49.892;7.936;2023-09-19T14:24:52;23.00;93.10
13682;DHT22;6913;49.892;7.936;2023-09-19T14:27:19;22.80;93.30
13682;DHT22;6913;49.892;7.936;2023-09-19T14:29:46;23.00;91.90
13682;DHT22;6913;49.892;7.936;2023-09-19T14:32:13;22.90;92.50
13682;DHT22;6913;49.892;7.936;2023-09-19T14:34:39;22.80;92.40
13682;DHT22;6913;49.892;7.936;2023-09-19T14:37:08;22.80;93.90
13682;DHT22;6913;49.892;7.936;2023-09-19T14:39:37;23.10;93.60
13682;DHT22;6913;49.892;7.936;2023-09-19T14:42:05;22.90;94.90
13682;DHT22;6913;49.892;7.936;2023-09-19T14:44:32;22.90;92.80
13682;DHT22;6913;49.892;7.936;2023-09-19T14:46:58;22.80;93.30
13682;DHT22;6913;49.892;7.936;2023-09-19T14:49:25;23.10;95.00
13682;DHT22;6913;49.892;7.936;2023-09-19T14:51:52;22.70;95.10
13682;DHT22;6913;49.892;7.936;2023-09-19T14:54:19;23.10;95.40
13682;DHT22;6913;49.892;7.936;2023-09-19T14:56:47;22.80;95.90
13682;DHT22;6913;49.892;7.936;2023-09-19T14:59:19;22.80;95.20
13682;DHT22;6913;49.892;7.936;2023-09-19T15:01:46;22.90;95.40
13682;DHT22;6913;49.892;7.936;2023-09-19T15:04:15;22.90;94.40
13682;DHT22;6913;49.892;7.936;2023-09-19T15:06:43;23.00;94.90
13682;DHT22;6913;49.892;7.936;2023-09-19T15:09:10;22.80;97.00
13682;DHT22;6913;49.892;7.936;2023-09-19T15:11:37;23.10;96.40
13682;DHT22;6913;49.892;7.936;2023-09-19T15:14:05;22.80;96.00
13682;DHT22;6913;49.892;7.936;2023-09-19T15:16:32;23.10;97.70
13682;DHT22;6913;49.892;7.936;2023-09-19T15:18:59;22.70;96.10
13682;DHT22;6913;49.892;7.936;2023-09-19T15:21:25;22.80;96.20
13682;DHT22;6913;49.892;7.936;2023-09-19T15:23:52;23.00;97.90
13682;DHT22;6913;49.892;7.936;2023-09-19T15:26:19;22.80;97.60
13682;DHT22;6913;49.892;7.936;2023-09-19T15:28:47;23.00;98.10
13682;DHT22;6913;49.892;7.936;2023-09-19T15:31:16;23.00;97.00
13682;DHT22;6913;49.892;7.936;2023-09-19T15:33:43;23.00;98.10
13682;DHT22;6913;49.892;7.936;2023-09-19T15:36:10;23.00;98.20
13682;DHT22;6913;49.892;7.936;2023-09-19T15:39:01;23.20;97.40
13682;DHT22;6913;49.892;7.936;2023-09-19T15:41:30;22.90;97.70
13682;DHT22;6913;49.892;7.936;2023-09-19T15:43:57;22.80;99.90
13682;DHT22;6913;49.892;7.936;2023-09-19T15:46:28;23.00;99.40
13682;DHT22;6913;49.892;7.936;2023-09-19T15:48:56;22.80;99.90
13682;DHT22;6913;49.892;7.936;2023-09-19T15:51:23;22.90;99.90
13682;DHT22;6913;49.892;7.936;2023-09-19T15:53:51;22.70;99.90
13682;DHT22;6913;49.892;7.936;2023-09-19T15:56:19;22.70;99.90
13682;DHT22;6913;49.892;7.936;2023-09-19T15:58:48;22.60;99.90
13682;DHT22;6913;49.892;7.936;2023-09-19T16:01:16;22.70;99.90
13682;DHT22;6913;49.892;7.936;2023-09-19T16:03:45;22.50;99.90
13682;DHT22;6913;49.892;7.936;2023-09-19T16:06:14;22.70;99.90
13682;DHT22;6913;49.892;7.936;2023-09-19T16:08:41;22.40;1.00
13682;DHT22;6913;49.892;7.936;2023-09-19T16:11:09;22.40;1.00
13682;DHT22;6913;49.892;7.936;2023-09-19T16:13:37;22.40;1.00
13682;DHT22;6913;49.892;7.936;2023-09-19T16:16:04;22.20;1.00